This is the latest recevied weather packets stored in our database for station/object S54L-12. If no packets are shown the sender has not sent any weather packets the latest 10 day(s).
| Time | Temp. | Humidity | Pressure | Rain* | Wind** | Luminosity | Snow |
|---|---|---|---|---|---|---|---|
| 1777630530 | 13.89° C | 31% | 932 hPa | - | - | - | - |
| 1777629630 | 14.44° C | 30% | 932 hPa | - | - | - | - |
| 1777628730 | 14.44° C | 30% | 932.1 hPa | - | - | - | - |
| 1777627830 | 14.44° C | 30% | 932.1 hPa | - | - | - | - |
| 1777626930 | 14.44° C | 29% | 932.2 hPa | - | - | - | - |
| 1777626030 | 17.78° C | 24% | 932.2 hPa | - | - | - | - |
| 1777625130 | 20° C | 19% | 932.1 hPa | - | - | - | - |
| 1777624230 | 20.56° C | 19% | 932.1 hPa | - | - | - | - |
| 1777623330 | 21.11° C | 18% | 932.2 hPa | - | - | - | - |
| 1777622431 | 19.44° C | 21% | 932 hPa | - | - | - | - |
| 1777621531 | 19.44° C | 19% | 932 hPa | - | - | - | - |
| 1777620631 | 20° C | 20% | 932 hPa | - | - | - | - |
| 1777619731 | 21.11° C | 18% | 931.9 hPa | - | - | - | - |
| 1777618831 | 20.56° C | 18% | 931.8 hPa | - | - | - | - |
| 1777617931 | 20° C | 19% | 931.6 hPa | - | - | - | - |
| 1777617031 | 20.56° C | 19% | 931.6 hPa | - | - | - | - |
| 1777616131 | 18.89° C | 22% | 931.5 hPa | - | - | - | - |
| 1777615231 | 16.11° C | 24% | 931.5 hPa | - | - | - | - |
| 1777614330 | 11.67° C | 30% | 931.3 hPa | - | - | - | - |
| 1777613430 | 5° C | 42% | 931.3 hPa | - | - | - | - |
| 1777612530 | 2.78° C | 49% | 931.4 hPa | - | - | - | - |
| 1777611630 | 1.67° C | 53% | 931.3 hPa | - | - | - | - |
| 1777610730 | 0.56° C | 60% | 931.3 hPa | - | - | - | - |
| 1777609830 | 0° C | 60% | 931.2 hPa | - | - | - | - |
| 1777608930 | -0.56° C | 65% | 931 hPa | - | - | - | - |
* Rain since midnight (hover to see other rain measurements)
** Current wind speed in m/s (hover to see current wind gust speed)